createdAt,value
2019-05-14T00:00:44.860Z,42.50
2019-05-14T00:03:11.342Z,42.80
2019-05-14T00:05:37.780Z,43.00
2019-05-14T00:08:03.926Z,43.20
2019-05-14T00:10:31.995Z,43.10
2019-05-14T00:12:57.979Z,43.30
2019-05-14T00:15:24.214Z,43.50
2019-05-14T00:17:52.277Z,43.60
2019-05-14T00:20:18.662Z,43.30
2019-05-14T00:22:44.811Z,43.40
2019-05-14T00:25:11.721Z,43.50
2019-05-14T00:27:37.977Z,43.70
2019-05-14T00:30:05.415Z,43.80
2019-05-14T00:32:31.837Z,43.70
2019-05-14T00:34:57.947Z,43.40
2019-05-14T00:37:24.007Z,43.30
2019-05-14T00:39:52.125Z,43.30
2019-05-14T00:42:18.491Z,43.30
2019-05-14T00:44:54.326Z,43.60
2019-05-14T00:47:12.623Z,43.60
2019-05-14T00:49:38.742Z,44.00
2019-05-14T00:52:05.037Z,44.20
2019-05-14T00:54:32.200Z,44.30
2019-05-14T00:57:01.341Z,45.30
2019-05-14T00:59:26.982Z,45.10
2019-05-14T01:01:53.119Z,46.80
2019-05-14T01:04:22.072Z,46.50
2019-05-14T01:06:47.790Z,47.00
2019-05-14T01:09:13.911Z,47.90
2019-05-14T01:11:41.985Z,49.40
2019-05-14T01:14:08.028Z,49.90
2019-05-14T01:16:34.453Z,49.70
2019-05-14T01:19:02.043Z,50.20
2019-05-14T01:21:33.075Z,51.50
2019-05-14T01:23:59.177Z,51.70
2019-05-14T01:26:25.401Z,51.90
2019-05-14T01:28:51.601Z,52.50
2019-05-14T01:31:17.847Z,53.20
2019-05-14T01:33:43.909Z,53.50
2019-05-14T01:36:12.200Z,54.30
2019-05-14T01:38:38.122Z,55.60
2019-05-14T01:41:04.255Z,55.90
2019-05-14T01:43:31.498Z,56.10
2019-05-14T01:45:57.879Z,56.40
2019-05-14T01:48:23.997Z,56.30
2019-05-14T01:50:52.088Z,56.60
2019-05-14T01:53:18.059Z,56.50
2019-05-14T01:55:44.157Z,57.30
2019-05-14T01:58:11.529Z,57.70
2019-05-14T02:00:37.779Z,58.40
2019-05-14T02:03:03.841Z,58.90
2019-05-14T02:05:31.228Z,59.40
2019-05-14T02:07:57.547Z,59.90
2019-05-14T02:10:23.820Z,61.00
2019-05-14T02:12:51.506Z,61.60
2019-05-14T02:15:18.095Z,62.00
2019-05-14T02:17:44.180Z,62.30
2019-05-14T02:20:12.502Z,63.00
2019-05-14T02:22:38.427Z,64.90
2019-05-14T02:25:06.007Z,65.50
2019-05-14T02:27:34.862Z,66.70
2019-05-14T02:30:01.737Z,67.00
2019-05-14T02:32:29.777Z,67.10
2019-05-14T02:34:58.830Z,67.00
2019-05-14T02:37:24.256Z,67.70
2019-05-14T02:39:50.502Z,67.20
2019-05-14T02:42:19.431Z,67.20
2019-05-14T02:44:44.659Z,68.40
2019-05-14T02:47:10.911Z,68.60
2019-05-14T02:49:39.697Z,69.20
2019-05-14T02:52:05.035Z,69.30
2019-05-14T02:54:31.067Z,70.60
2019-05-14T02:56:59.875Z,70.00
2019-05-14T02:59:25.394Z,70.40
2019-05-14T03:01:51.449Z,71.10
2019-05-14T03:04:19.748Z,71.50
2019-05-14T03:06:45.928Z,74.00
2019-05-14T03:09:12.123Z,74.50
2019-05-14T03:11:40.373Z,75.40
2019-05-14T03:14:08.950Z,75.00
2019-05-14T03:16:35.972Z,74.40
2019-05-14T03:19:02.535Z,74.40
2019-05-14T03:21:30.371Z,74.20
2019-05-14T03:24:00.453Z,74.10
2019-05-14T03:26:24.707Z,74.70
2019-05-14T03:28:50.748Z,75.30
2019-05-14T03:31:21.839Z,75.20
2019-05-14T03:33:45.162Z,76.00
2019-05-14T03:36:17.817Z,75.60
2019-05-14T03:38:39.811Z,76.10
2019-05-14T03:43:40.809Z,76.60
2019-05-14T03:46:09.717Z,81.30
2019-05-14T03:48:34.891Z,79.60
2019-05-14T03:51:02.231Z,79.10
2019-05-14T03:53:29.554Z,80.20
2019-05-14T03:55:59.408Z,80.40
2019-05-14T03:58:24.462Z,80.50
2019-05-14T04:01:00.408Z,80.40
2019-05-14T04:03:25.247Z,80.60
2019-05-14T04:05:52.525Z,80.80
2019-05-14T04:08:21.369Z,80.60
2019-05-14T04:10:53.041Z,80.40
2019-05-14T04:13:19.595Z,79.90
2019-05-14T04:15:49.460Z,78.80
2019-05-14T04:18:18.512Z,78.70
2019-05-14T04:20:44.880Z,78.70
2019-05-14T04:23:14.165Z,78.50
2019-05-14T04:25:40.742Z,79.00
2019-05-14T04:28:19.102Z,78.70
2019-05-14T04:30:49.314Z,78.70
2019-05-14T04:33:19.352Z,79.50
2019-05-14T04:35:48.850Z,79.50
2019-05-14T04:38:13.878Z,80.70
2019-05-14T04:40:40.136Z,80.40
2019-05-14T04:43:09.973Z,80.60
2019-05-14T04:45:34.270Z,80.10
2019-05-14T04:48:00.477Z,81.10
2019-05-14T04:50:29.444Z,80.50
2019-05-14T04:52:54.955Z,80.60
2019-05-14T04:55:21.048Z,81.30
2019-05-14T04:57:50.135Z,81.50
2019-05-14T05:00:15.417Z,82.40
2019-05-14T05:02:41.609Z,83.00
2019-05-14T05:05:09.010Z,83.50
2019-05-14T05:07:35.450Z,84.20
2019-05-14T05:10:05.749Z,84.70
2019-05-14T05:12:31.871Z,85.00
2019-05-14T05:14:58.743Z,85.40
2019-05-14T05:17:40.223Z,85.80
2019-05-14T05:19:53.368Z,86.30
2019-05-14T05:22:19.689Z,86.00
2019-05-14T05:24:48.637Z,85.30
2019-05-14T05:27:14.851Z,86.50
2019-05-14T05:29:41.062Z,86.20
2019-05-14T05:32:08.681Z,86.60
2019-05-14T05:34:34.975Z,86.30
2019-05-14T05:37:01.202Z,86.70
2019-05-14T05:39:28.237Z,86.70
2019-05-14T05:41:54.867Z,86.90
2019-05-14T05:44:21.123Z,87.10
2019-05-14T05:46:49.337Z,87.90
2019-05-14T05:49:15.444Z,88.70
2019-05-14T05:51:41.509Z,88.90
2019-05-14T05:54:09.243Z,89.20
2019-05-14T05:56:35.479Z,89.00
2019-05-14T05:59:01.561Z,88.70
2019-05-14T06:01:42.136Z,86.30
2019-05-14T06:03:55.732Z,85.80
2019-05-14T06:06:22.409Z,79.80
2019-05-14T06:08:49.334Z,77.40
2019-05-14T06:11:15.592Z,73.30
2019-05-14T06:13:41.707Z,72.00
2019-05-14T06:16:09.462Z,71.90
2019-05-14T06:18:35.956Z,70.70
2019-05-14T06:21:02.067Z,71.60
2019-05-14T06:23:28.637Z,69.00
2019-05-14T06:25:55.016Z,69.30
2019-05-14T06:28:21.216Z,69.50
2019-05-14T06:30:48.363Z,69.50
2019-05-14T06:33:14.902Z,69.10
2019-05-14T06:35:41.095Z,68.10
2019-05-14T06:38:08.890Z,67.80
2019-05-14T06:40:35.105Z,66.80
2019-05-14T06:43:01.298Z,67.40
2019-05-14T06:45:29.170Z,67.90
2019-05-14T06:47:55.494Z,67.40
2019-05-14T06:50:21.650Z,67.20
2019-05-14T06:52:49.244Z,67.90
2019-05-14T06:55:17.906Z,65.50
2019-05-14T06:57:43.721Z,66.10
2019-05-14T07:00:11.169Z,65.10
2019-05-14T07:02:43.385Z,64.30
2019-05-14T07:05:08.180Z,65.00
2019-05-14T07:07:33.897Z,64.50
2019-05-14T07:10:00.018Z,63.60
2019-05-14T07:12:26.191Z,63.90
2019-05-14T07:14:52.268Z,63.60
2019-05-14T07:17:18.502Z,62.90
2019-05-14T07:19:48.768Z,61.90
2019-05-14T07:22:14.803Z,61.10
2019-05-14T07:24:41.050Z,62.20
2019-05-14T07:27:09.446Z,62.60
2019-05-14T07:29:35.133Z,62.90
2019-05-14T07:32:01.239Z,60.60
2019-05-14T07:34:28.311Z,61.30
2019-05-14T07:36:54.473Z,61.80
2019-05-14T07:39:20.553Z,61.40
2019-05-14T07:41:48.344Z,61.50
2019-05-14T07:44:14.767Z,61.40
2019-05-14T07:46:40.873Z,61.50
2019-05-14T07:49:09.334Z,61.80
2019-05-14T07:51:34.946Z,59.30
2019-05-14T07:54:01.219Z,58.60
2019-05-14T07:56:29.238Z,57.70
2019-05-14T07:58:58.095Z,58.90
2019-05-14T08:01:23.581Z,57.10
2019-05-14T08:03:49.649Z,55.50
2019-05-14T08:06:15.724Z,54.80
2019-05-14T08:08:41.910Z,52.30
2019-05-14T08:11:08.735Z,52.70
2019-05-14T08:13:35.049Z,53.80
2019-05-14T08:16:01.140Z,53.70
2019-05-14T08:18:29.021Z,54.10
2019-05-14T08:20:55.346Z,52.60
2019-05-14T08:23:21.437Z,55.10
2019-05-14T08:25:48.084Z,51.00
2019-05-14T08:28:14.389Z,48.10
2019-05-14T08:30:40.456Z,48.10
2019-05-14T08:33:08.795Z,49.10
2019-05-14T08:35:35.280Z,46.30
2019-05-14T08:38:07.709Z,45.20
2019-05-14T08:40:29.842Z,45.70
2019-05-14T08:42:58.211Z,44.90
2019-05-14T08:45:24.118Z,41.00
2019-05-14T08:47:50.257Z,40.20
2019-05-14T08:50:18.728Z,41.20
2019-05-14T08:52:44.935Z,44.30
2019-05-14T08:55:14.026Z,44.60
2019-05-14T08:57:39.261Z,42.70
2019-05-14T09:00:13.545Z,43.40
2019-05-14T09:02:35.113Z,42.30
2019-05-14T09:05:03.909Z,40.00
2019-05-14T09:07:29.433Z,38.20
2019-05-14T09:09:55.788Z,34.30
2019-05-14T09:12:21.860Z,33.30
2019-05-14T09:14:48.436Z,33.50
2019-05-14T09:17:15.041Z,34.10
2019-05-14T09:19:57.745Z,33.80
2019-05-14T09:22:09.689Z,33.90
2019-05-14T09:24:38.435Z,34.50
2019-05-14T09:27:05.591Z,34.60
2019-05-14T09:29:31.820Z,36.40
2019-05-14T09:31:58.965Z,37.10
2019-05-14T09:34:25.427Z,38.50
2019-05-14T09:36:51.503Z,38.40
2019-05-14T09:39:18.810Z,39.00
2019-05-14T09:41:45.120Z,39.40
2019-05-14T09:44:11.308Z,38.40
2019-05-14T09:46:38.526Z,36.50
2019-05-14T09:49:04.912Z,38.10
2019-05-14T09:51:31.579Z,37.70
2019-05-14T09:53:59.002Z,37.40
2019-05-14T09:56:25.349Z,36.80
2019-05-14T09:58:51.399Z,36.40
2019-05-14T10:01:19.380Z,35.90
2019-05-14T10:03:45.483Z,35.70
2019-05-14T10:06:11.714Z,33.20
2019-05-14T10:08:39.035Z,33.20
2019-05-14T10:11:05.569Z,33.80
2019-05-14T10:13:31.751Z,33.40
2019-05-14T10:15:58.889Z,33.80
2019-05-14T10:18:25.428Z,33.90
2019-05-14T10:20:51.611Z,34.60
2019-05-14T10:23:18.958Z,33.60
2019-05-14T10:25:45.278Z,34.60
2019-05-14T10:28:11.468Z,34.50
2019-05-14T10:30:37.618Z,33.20
2019-05-14T10:33:09.656Z,33.70
2019-05-14T10:35:31.991Z,32.40
2019-05-14T10:37:59.823Z,33.00
2019-05-14T10:40:29.042Z,31.20
2019-05-14T10:42:54.275Z,31.20
2019-05-14T10:45:20.558Z,31.80
2019-05-14T10:47:49.265Z,32.20
2019-05-14T10:50:14.923Z,32.40
2019-05-14T10:52:40.991Z,30.00
2019-05-14T10:55:08.017Z,29.60
2019-05-14T10:57:34.259Z,28.40
2019-05-14T11:00:00.618Z,28.30
2019-05-14T11:02:29.102Z,29.00
2019-05-14T11:04:55.065Z,30.00
2019-05-14T11:07:21.274Z,31.60
2019-05-14T11:09:48.599Z,32.70
2019-05-14T11:12:14.855Z,30.00
2019-05-14T11:14:40.963Z,29.50
2019-05-14T11:17:11.393Z,29.20
2019-05-14T11:19:35.192Z,29.60
2019-05-14T11:22:01.275Z,30.50
2019-05-14T11:24:29.567Z,30.00
2019-05-14T11:26:55.657Z,30.00
2019-05-14T11:29:21.866Z,30.80
2019-05-14T11:31:49.746Z,29.90
2019-05-14T11:34:20.017Z,29.80
2019-05-14T11:36:46.087Z,29.50
2019-05-14T11:39:12.272Z,29.60
2019-05-14T11:41:39.019Z,29.70
2019-05-14T11:44:05.781Z,29.50
2019-05-14T11:46:44.442Z,29.80
2019-05-14T11:48:59.822Z,30.10
2019-05-14T11:51:56.209Z,29.80
2019-05-14T11:53:53.874Z,30.00
2019-05-14T11:56:19.936Z,30.10
2019-05-14T11:58:46.372Z,29.10
2019-05-14T12:01:12.757Z,28.90
2019-05-14T12:03:39.579Z,28.80
2019-05-14T12:06:05.885Z,29.20
2019-05-14T12:08:32.102Z,27.80
2019-05-14T12:10:59.285Z,27.40
2019-05-14T12:13:29.845Z,28.10
2019-05-14T12:15:53.432Z,28.10
2019-05-14T12:18:19.751Z,27.50
2019-05-14T12:20:46.002Z,28.20
2019-05-14T12:23:12.180Z,28.20
2019-05-14T12:25:38.286Z,28.60
2019-05-14T12:28:04.467Z,28.70
2019-05-14T12:30:30.704Z,29.60
2019-05-14T12:32:58.994Z,29.30
2019-05-14T12:35:24.845Z,29.40
2019-05-14T12:37:50.929Z,29.80
2019-05-14T12:40:19.381Z,29.60
2019-05-14T12:42:45.416Z,29.90
2019-05-14T12:45:11.897Z,30.70
2019-05-14T12:47:38.489Z,29.40
2019-05-14T12:50:06.439Z,29.40
2019-05-14T12:52:32.688Z,29.10
2019-05-14T12:54:59.793Z,29.40
2019-05-14T12:57:26.252Z,29.60
2019-05-14T12:59:52.288Z,29.50
2019-05-14T13:02:18.886Z,29.50
2019-05-14T13:04:45.238Z,29.40
2019-05-14T13:07:11.589Z,29.40
2019-05-14T13:09:38.528Z,29.60
2019-05-14T13:12:04.984Z,29.30
2019-05-14T13:14:31.209Z,28.00
2019-05-14T13:16:59.588Z,27.80
2019-05-14T13:19:25.237Z,27.70
2019-05-14T13:22:08.662Z,27.50
2019-05-14T13:24:19.321Z,27.60
2019-05-14T13:26:45.416Z,26.30
2019-05-14T13:29:11.602Z,26.80
2019-05-14T13:31:37.773Z,27.70
2019-05-14T13:34:03.947Z,27.70
2019-05-14T13:36:30.071Z,27.90
2019-05-14T13:38:59.240Z,29.10
2019-05-14T13:41:24.452Z,29.00
2019-05-14T13:43:50.828Z,29.50
2019-05-14T13:46:18.962Z,29.60
2019-05-14T13:48:45.203Z,30.40
2019-05-14T13:51:11.283Z,29.60
2019-05-14T13:53:39.116Z,29.10
2019-05-14T13:56:05.331Z,29.40
2019-05-14T13:58:31.496Z,29.20
2019-05-14T14:00:59.103Z,29.10
2019-05-14T14:03:28.939Z,27.10
2019-05-14T14:05:53.804Z,28.10
2019-05-14T14:08:19.935Z,27.20
2019-05-14T14:10:52.319Z,27.40
2019-05-14T14:13:14.255Z,27.10
2019-05-14T14:15:40.478Z,26.90
2019-05-14T14:18:06.631Z,27.90
2019-05-14T14:20:32.895Z,27.40
2019-05-14T14:23:09.165Z,28.10
2019-05-14T14:25:29.555Z,29.10
2019-05-14T14:28:00.296Z,28.60
2019-05-14T14:30:25.150Z,28.40
2019-05-14T14:32:51.241Z,28.00
2019-05-14T14:35:22.699Z,27.10
2019-05-14T14:37:45.522Z,27.70
2019-05-14T14:40:12.031Z,28.20
2019-05-14T14:42:40.074Z,28.60
2019-05-14T14:45:08.614Z,28.20
2019-05-14T14:47:34.907Z,27.90
2019-05-14T14:50:01.090Z,28.30
2019-05-14T14:52:29.220Z,28.00
2019-05-14T14:54:55.658Z,27.80
2019-05-14T14:57:22.117Z,27.10
2019-05-14T14:59:48.650Z,27.70
2019-05-14T15:02:15.044Z,28.00
2019-05-14T15:04:41.188Z,28.00
2019-05-14T15:07:09.641Z,28.30
2019-05-14T15:09:35.242Z,28.30
2019-05-14T15:12:01.551Z,28.70
2019-05-14T15:14:29.746Z,29.40
2019-05-14T15:16:55.604Z,29.60
2019-05-14T15:19:21.720Z,30.40
2019-05-14T15:21:48.943Z,30.00
2019-05-14T15:24:15.827Z,29.80
2019-05-14T15:26:42.380Z,29.10
2019-05-14T15:29:09.954Z,29.30
2019-05-14T15:31:38.547Z,29.80
2019-05-14T15:34:04.397Z,30.00
2019-05-14T15:36:30.462Z,29.80
2019-05-14T15:38:58.940Z,30.20
2019-05-14T15:41:24.747Z,30.50
2019-05-14T15:43:51.059Z,30.50
2019-05-14T15:46:18.513Z,30.60
2019-05-14T15:48:44.847Z,30.40
2019-05-14T15:51:14.979Z,30.50
2019-05-14T15:53:38.904Z,30.40
2019-05-14T15:56:05.200Z,30.30
2019-05-14T15:58:31.368Z,29.60
2019-05-14T16:01:00.813Z,30.00
2019-05-14T16:03:27.890Z,29.10
2019-05-14T16:05:53.671Z,29.50
2019-05-14T16:08:22.725Z,29.30
2019-05-14T16:10:48.368Z,30.00
2019-05-14T16:13:14.468Z,29.40
2019-05-14T16:15:40.731Z,29.50
2019-05-14T16:18:14.839Z,30.00
2019-05-14T16:20:34.934Z,29.70
2019-05-14T16:23:00.969Z,29.50
2019-05-14T16:25:28.635Z,30.10
2019-05-14T16:27:55.068Z,29.80
2019-05-14T16:30:21.246Z,29.00
2019-05-14T16:32:48.610Z,29.40
2019-05-14T16:35:14.793Z,30.00
2019-05-14T16:37:41.286Z,30.00
2019-05-14T16:40:07.922Z,30.60
2019-05-14T16:42:34.931Z,31.40
2019-05-14T16:45:01.411Z,31.20
2019-05-14T16:47:28.623Z,31.20
2019-05-14T16:49:54.928Z,31.70
2019-05-14T16:52:21.407Z,31.60
2019-05-14T16:54:48.905Z,31.50
2019-05-14T16:57:18.392Z,30.50
2019-05-14T16:59:43.867Z,30.50
2019-05-14T17:02:10.097Z,30.30
2019-05-14T17:04:38.581Z,30.80
2019-05-14T17:07:04.659Z,30.00
2019-05-14T17:09:31.308Z,29.90
2019-05-14T17:11:58.967Z,30.10
2019-05-14T17:14:25.704Z,30.50
2019-05-14T17:16:52.147Z,30.90
2019-05-14T17:19:19.314Z,30.80
2019-05-14T17:21:45.740Z,30.80
2019-05-14T17:24:12.155Z,30.80
2019-05-14T17:26:38.928Z,30.90
2019-05-14T17:29:05.198Z,31.50
2019-05-14T17:31:31.320Z,31.60
2019-05-14T17:33:58.444Z,32.00
2019-05-14T17:36:24.651Z,31.80
2019-05-14T17:38:51.174Z,32.20
2019-05-14T17:41:19.449Z,32.50
2019-05-14T17:43:45.318Z,32.10
2019-05-14T17:46:11.526Z,30.70
2019-05-14T17:48:39.110Z,30.10
2019-05-14T17:51:05.447Z,30.70
2019-05-14T17:53:31.995Z,30.80
2019-05-14T17:55:59.297Z,31.30
2019-05-14T17:58:25.714Z,31.40
2019-05-14T18:00:51.960Z,32.10
2019-05-14T18:03:18.531Z,31.60
2019-05-14T18:05:44.634Z,32.00
2019-05-14T18:08:10.853Z,32.30
2019-05-14T18:10:39.190Z,31.80
2019-05-14T18:13:05.131Z,32.10
2019-05-14T18:15:31.484Z,32.10
2019-05-14T18:17:58.862Z,31.80
2019-05-14T18:20:25.361Z,32.10
2019-05-14T18:22:51.500Z,32.30
2019-05-14T18:25:18.366Z,31.90
2019-05-14T18:27:44.778Z,32.30
2019-05-14T18:30:11.467Z,32.60
2019-05-14T18:32:37.698Z,32.50
2019-05-14T18:35:04.091Z,32.40
2019-05-14T18:37:30.190Z,32.70
2019-05-14T18:39:58.648Z,32.60
2019-05-14T18:42:24.313Z,32.80
2019-05-14T18:44:50.512Z,33.00
2019-05-14T18:47:19.355Z,33.20
2019-05-14T18:49:44.745Z,33.30
2019-05-14T18:52:12.230Z,33.40
2019-05-14T18:54:39.622Z,33.10
2019-05-14T18:57:11.306Z,33.30
2019-05-14T18:59:33.965Z,33.80
2019-05-14T19:02:00.169Z,33.80
2019-05-14T19:04:27.981Z,33.90
2019-05-14T19:06:55.357Z,34.20
2019-05-14T19:09:21.567Z,34.80
2019-05-14T19:11:48.262Z,35.10
2019-05-14T19:14:14.895Z,35.50
2019-05-14T19:16:41.099Z,35.60
2019-05-14T19:19:08.050Z,35.80
2019-05-14T19:21:34.306Z,36.40
2019-05-14T19:24:00.505Z,36.50
2019-05-14T19:26:34.314Z,36.70
2019-05-14T19:28:54.831Z,36.80
2019-05-14T19:31:22.101Z,37.10
2019-05-14T19:33:48.756Z,37.30
2019-05-14T19:36:15.234Z,37.50
2019-05-14T19:38:41.389Z,37.80
2019-05-14T19:41:08.613Z,38.00
2019-05-14T19:43:34.941Z,38.00
2019-05-14T19:46:02.420Z,38.30
2019-05-14T19:48:32.686Z,38.40
2019-05-14T19:53:52.318Z,38.90
2019-05-14T19:56:17.738Z,39.10
2019-05-14T19:58:43.948Z,39.10
2019-05-14T20:01:10.043Z,39.50
2019-05-14T20:03:36.214Z,39.50
2019-05-14T20:06:02.544Z,39.80
2019-05-14T20:08:29.588Z,39.90
2019-05-14T20:10:55.899Z,40.10
2019-05-14T20:13:21.982Z,40.50
2019-05-14T20:15:48.842Z,40.60
2019-05-14T20:18:15.102Z,40.40
2019-05-14T20:20:41.611Z,41.60
2019-05-14T20:23:07.691Z,41.60
2019-05-14T20:25:33.875Z,42.10
2019-05-14T20:28:00.068Z,42.30
2019-05-14T20:30:29.234Z,42.90
2019-05-14T20:32:54.416Z,43.50
2019-05-14T20:35:30.813Z,44.10
2019-05-14T20:37:49.355Z,44.70
2019-05-14T20:40:15.734Z,45.30
2019-05-14T20:42:42.149Z,45.60
2019-05-14T20:45:08.851Z,46.40
2019-05-14T20:47:34.972Z,46.70
2019-05-14T20:50:01.470Z,47.10
2019-05-14T20:52:28.441Z,47.90
2019-05-14T20:54:55.361Z,48.30
2019-05-14T20:57:26.878Z,48.70
2019-05-14T20:59:49.763Z,48.70
2019-05-14T21:02:18.155Z,49.30
2019-05-14T21:04:44.353Z,49.70
2019-05-14T21:07:10.489Z,50.20
2019-05-14T21:09:38.645Z,50.10
2019-05-14T21:12:04.541Z,50.70
2019-05-14T21:14:30.654Z,51.30
2019-05-14T21:16:56.852Z,51.50
2019-05-14T21:19:22.934Z,51.60
2019-05-14T21:21:49.284Z,52.00
2019-05-14T21:24:15.501Z,52.10
2019-05-14T21:26:41.666Z,52.60
2019-05-14T21:29:07.974Z,53.20
2019-05-14T21:31:34.182Z,53.30
2019-05-14T21:34:00.253Z,53.60
2019-05-14T21:36:28.410Z,53.90
2019-05-14T21:38:54.449Z,54.30
2019-05-14T21:41:20.716Z,54.70
2019-05-14T21:43:49.254Z,54.90
2019-05-14T21:46:15.444Z,55.70
2019-05-14T21:48:41.503Z,55.90
2019-05-14T21:51:09.365Z,55.90
2019-05-14T21:53:40.852Z,56.40
2019-05-14T21:56:04.258Z,56.50
2019-05-14T21:58:30.428Z,56.50
2019-05-14T22:00:59.215Z,57.20
2019-05-14T22:03:25.602Z,57.40
2019-05-14T22:05:54.144Z,58.10
2019-05-14T22:08:20.420Z,58.10
2019-05-14T22:10:48.880Z,58.70
2019-05-14T22:13:15.525Z,59.20
2019-05-14T22:15:41.971Z,59.70
2019-05-14T22:18:17.469Z,60.10
2019-05-14T22:20:38.567Z,60.40
2019-05-14T22:23:10.595Z,60.60
2019-05-14T22:25:39.175Z,60.90
2019-05-14T22:28:12.337Z,61.10
2019-05-14T22:30:34.127Z,61.20
2019-05-14T22:33:00.788Z,61.80
2019-05-14T22:35:30.815Z,62.20
2019-05-14T22:37:55.823Z,62.20
2019-05-14T22:40:22.061Z,62.40
2019-05-14T22:42:48.905Z,63.00
2019-05-14T22:45:15.298Z,63.10
2019-05-14T22:47:41.473Z,63.40
2019-05-14T22:50:08.946Z,63.60
2019-05-14T22:52:35.327Z,63.50
2019-05-14T22:55:01.562Z,63.90
2019-05-14T22:57:30.870Z,64.30
2019-05-14T22:59:57.988Z,64.30
2019-05-14T23:02:24.984Z,64.80
2019-05-14T23:04:51.073Z,65.20
2019-05-14T23:07:18.964Z,65.20
2019-05-14T23:09:45.465Z,65.40
2019-05-14T23:12:12.352Z,66.00
2019-05-14T23:14:39.085Z,65.80
2019-05-14T23:17:05.360Z,66.50
2019-05-14T23:19:33.451Z,67.20
2019-05-14T23:21:59.684Z,67.90
2019-05-14T23:24:28.315Z,68.70
2019-05-14T23:26:54.200Z,69.00
2019-05-14T23:29:20.364Z,68.60
2019-05-14T23:31:48.687Z,69.00
2019-05-14T23:34:14.619Z,69.40
2019-05-14T23:36:40.898Z,69.70
2019-05-14T23:39:08.780Z,69.10
2019-05-14T23:41:38.171Z,69.90
2019-05-14T23:44:03.588Z,70.10
2019-05-14T23:46:29.989Z,70.50
2019-05-14T23:48:56.256Z,70.80
2019-05-14T23:51:22.455Z,71.30
2019-05-14T23:53:48.719Z,71.60
2019-05-14T23:56:14.922Z,71.70
2019-05-14T23:58:54.174Z,72.20
